KADS/ADS METAR and TAF weather

Enter ICAO airport designator
Station Type Date Time Source
KADS METAR 2019/02/23 01:47 UTC NOAA

KADS 230147Z 10005KT 7SM OVC005 09/08 A2991


Station Type Date Time Source
KADS Decoded METAR 2019/02/23 01:47 UTC NOAA

Dallas / Addison Airport, TX, United States (KADS) 32-58N 096-50W
Feb 22, 2019 - 08:47 PM EST / 2019.02.23 0147 UTC
Wind: from the E (100 degrees) at 6 MPH (5 KT):0
Visibility: 7 mile(s):0
Sky conditions: overcast
Temperature: 48 F (9 C)
Dew Point: 46 F (8 C)
Relative Humidity: 93%
Pressure (altimeter): 29.91 in. Hg (1012 hPa)
ob: KADS 230147Z 10005KT 7SM OVC005 09/08 A2991
cycle: 2

Station Type Date Time Source
KADS TAF UTC NOAA

Error!


Example: see airport list